Time;durP1;ratioP1;P1;durP2;ratioP2;P2;SDS_P1;SDS_P2;PMS_P1;PMS_P2;Temp;Humidity;BMP_temperature;BMP_pressure;BME280_temperature;BME280_humidity;BME280_pressure;Samples;Min_cycle;Max_cycle;Signal;HPM_P1;HPM_P2
2022/09/30 00:00:32;;;;;;;14.60;10.60;;;7.90;99.90;;;;;;5075082;28;20220;-76
2022/09/30 00:02:59;;;;;;;20.70;11.30;;;7.80;99.90;;;;;;5075401;28;20213;-75
2022/09/30 00:05:25;;;;;;;12.93;11.35;;;7.90;99.90;;;;;;5074994;28;20205;-76
2022/09/30 00:07:52;;;;;;;12.98;11.57;;;7.80;99.90;;;;;;5075344;28;20213;-76
2022/09/30 00:10:19;;;;;;;14.20;10.35;;;7.80;99.90;;;;;;5074520;28;20587;-77
2022/09/30 00:12:46;;;;;;;15.50;12.73;;;7.80;99.90;;;;;;5074501;28;20228;-77
2022/09/30 00:15:13;;;;;;;16.88;13.00;;;7.80;99.90;;;;;;5075065;28;20209;-76
2022/09/30 00:17:41;;;;;;;18.85;15.13;;;7.70;99.90;;;;;;5074607;28;20209;-76
2022/09/30 00:20:09;;;;;;;16.52;12.82;;;7.70;99.90;;;;;;5074627;28;20316;-77
2022/09/30 00:22:35;;;;;;;12.18;10.63;;;7.70;99.90;;;;;;5074478;28;20716;-77
2022/09/30 00:25:02;;;;;;;13.88;11.70;;;7.70;99.90;;;;;;5074079;28;20215;-76
2022/09/30 00:27:29;;;;;;;15.02;13.00;;;7.70;99.90;;;;;;5074218;28;20259;-76
2022/09/30 00:29:55;;;;;;;12.75;11.10;;;7.70;99.90;;;;;;5074636;28;20225;-76
2022/09/30 00:32:22;;;;;;;13.95;11.85;;;7.70;99.90;;;;;;5074738;28;20222;-77
2022/09/30 00:34:50;;;;;;;13.60;11.80;;;7.70;99.90;;;;;;5074493;28;20205;-76
2022/09/30 00:37:16;;;;;;;17.77;12.02;;;7.80;99.90;;;;;;5074680;28;20214;-76
2022/09/30 00:39:43;;;;;;;13.60;11.73;;;7.70;99.90;;;;;;5073945;28;20223;-76
2022/09/30 00:42:14;;;;;;;13.23;11.23;;;7.60;99.90;;;;;;5074290;28;20208;-77
2022/09/30 00:44:54;;;;;;;13.95;11.00;;;7.50;99.90;;;;;;5074920;28;20571;-77
2022/09/30 00:47:38;;;;;;;12.38;11.07;;;7.50;99.90;;;;;;5074513;28;20197;-77
2022/09/30 00:50:15;;;;;;;14.80;10.48;;;7.50;99.90;;;;;;5074127;28;20711;-75
2022/09/30 00:52:43;;;;;;;13.90;11.40;;;7.50;99.90;;;;;;5074362;28;20586;-76
2022/09/30 00:55:20;;;;;;;13.27;10.70;;;7.50;99.90;;;;;;5073971;28;20675;-75
2022/09/30 00:57:48;;;;;;;14.23;12.55;;;7.50;99.90;;;;;;5074157;28;20193;-75
2022/09/30 01:00:14;;;;;;;20.27;13.82;;;7.50;99.90;;;;;;5076552;28;20283;-76
2022/09/30 01:02:41;;;;;;;15.10;12.65;;;7.50;99.90;;;;;;5076687;28;20224;-76
2022/09/30 01:05:10;;;;;;;14.73;12.65;;;7.50;99.90;;;;;;5074571;28;20204;-76
2022/09/30 01:07:37;;;;;;;15.77;12.75;;;7.40;99.90;;;;;;5074088;28;20205;-76
2022/09/30 01:10:05;;;;;;;16.00;13.05;;;7.30;99.90;;;;;;5086325;22;20229;-74
2022/09/30 01:12:32;;;;;;;15.73;13.05;;;7.40;99.90;;;;;;5053459;28;20245;-74
2022/09/30 01:15:00;;;;;;;14.80;12.40;;;7.40;99.90;;;;;;5053519;28;20280;-74
2022/09/30 01:17:40;;;;;;;18.40;13.50;;;7.40;99.90;;;;;;5053158;28;20234;-74
2022/09/30 01:20:39;;;;;;;18.92;13.35;;;7.30;99.90;;;;;;5053377;28;20231;-74
2022/09/30 01:23:32;;;;;;;16.65;13.25;;;7.30;99.90;;;;;;5053308;28;20189;-73
2022/09/30 01:26:21;;;;;;;20.30;12.90;;;7.30;99.90;;;;;;5053447;28;20205;-74
2022/09/30 01:29:17;;;;;;;14.85;12.43;;;7.10;99.90;;;;;;5055810;28;20714;-73
2022/09/30 01:31:56;;;;;;;19.00;13.45;;;7.30;99.90;;;;;;5056959;28;20208;-73
2022/09/30 01:34:35;;;;;;;14.98;13.05;;;7.30;99.90;;;;;;5053308;28;20638;-74
2022/09/30 01:37:10;;;;;;;14.25;12.13;;;7.30;99.90;;;;;;5053255;28;20191;-73
2022/09/30 01:39:53;;;;;;;16.77;12.70;;;7.30;99.90;;;;;;5053652;28;20232;-73
2022/09/30 01:42:26;;;;;;;14.50;12.93;;;7.20;99.90;;;;;;5053479;28;20216;-73
2022/09/30 01:45:02;;;;;;;18.73;14.15;;;7.20;99.90;;;;;;5053365;28;20620;-74
2022/09/30 01:47:33;;;;;;;16.10;13.82;;;7.20;99.90;;;;;;5053122;28;20200;-73
2022/09/30 01:50:03;;;;;;;14.77;11.40;;;7.20;99.90;;;;;;5053041;28;20227;-73
2022/09/30 01:52:35;;;;;;;16.77;13.73;;;7.20;99.90;;;;;;5052595;28;20698;-73
2022/09/30 01:55:07;;;;;;;13.32;11.98;;;7.20;99.90;;;;;;5052856;28;20193;-73
2022/09/30 01:57:46;;;;;;;19.35;13.73;;;7.20;99.90;;;;;;5052806;28;20189;-73
2022/09/30 02:00:14;;;;;;;15.65;12.60;;;6.90;99.90;;;;;;5053477;28;20286;-73
2022/09/30 02:02:47;;;;;;;17.33;12.98;;;7.20;99.90;;;;;;5052416;28;20235;-73
2022/09/30 02:05:18;;;;;;;13.73;12.10;;;7.20;99.90;;;;;;5052687;28;20237;-73
2022/09/30 02:07:50;;;;;;;18.13;12.73;;;7.10;99.90;;;;;;5052621;28;20511;-73
2022/09/30 02:10:20;;;;;;;17.00;11.90;;;7.20;99.90;;;;;;5052371;28;20607;-73
2022/09/30 02:12:51;;;;;;;15.73;12.68;;;7.30;99.90;;;;;;5052657;28;20207;-73
2022/09/30 02:15:36;;;;;;;15.57;12.93;;;7.20;99.90;;;;;;5052934;28;20223;-73
2022/09/30 02:18:12;;;;;;;14.45;11.98;;;7.20;99.90;;;;;;5054092;28;20196;-74
2022/09/30 02:20:43;;;;;;;15.13;11.85;;;7.20;99.90;;;;;;5053689;28;20226;-73
2022/09/30 02:23:14;;;;;;;15.20;11.23;;;7.10;99.90;;;;;;5057642;28;20180;-73
2022/09/30 02:25:47;;;;;;;13.85;12.25;;;7.10;99.90;;;;;;5060320;28;20189;-74
2022/09/30 02:28:17;;;;;;;17.58;12.50;;;7.10;99.90;;;;;;5058971;28;20192;-74
2022/09/30 02:30:49;;;;;;;15.63;11.52;;;7.20;99.90;;;;;;5057882;28;20275;-74
2022/09/30 02:33:24;;;;;;;13.30;11.98;;;7.00;99.90;;;;;;5059380;28;20231;-74
2022/09/30 02:35:56;;;;;;;13.77;11.63;;;7.00;99.90;;;;;;5056121;28;20198;-74
2022/09/30 02:38:29;;;;;;;16.08;12.80;;;6.50;99.90;;;;;;5056107;28;20635;-73
2022/09/30 02:41:07;;;;;;;14.45;12.23;;;6.70;99.90;;;;;;5059064;28;20269;-74
2022/09/30 02:43:35;;;;;;;16.58;11.57;;;6.80;99.90;;;;;;5060665;28;20199;-74
2022/09/30 02:46:08;;;;;;;15.68;12.90;;;6.90;99.90;;;;;;5056244;28;20214;-73
2022/09/30 02:48:47;;;;;;;15.95;12.00;;;6.80;99.90;;;;;;5056586;28;20196;-74
2022/09/30 02:51:22;;;;;;;18.02;13.10;;;6.90;99.90;;;;;;5056398;28;20275;-74
2022/09/30 02:53:56;;;;;;;16.50;13.68;;;7.00;99.90;;;;;;5057274;28;20208;-74
2022/09/30 02:56:31;;;;;;;19.30;14.75;;;6.90;99.90;;;;;;5057069;28;20189;-74
2022/09/30 02:58:59;;;;;;;20.35;15.88;;;6.70;99.90;;;;;;5056639;28;20207;-73
2022/09/30 03:01:27;;;;;;;19.65;13.73;;;6.60;99.90;;;;;;5057487;28;20286;-74
2022/09/30 03:03:59;;;;;;;14.15;11.95;;;8.20;99.90;;;;;;5057483;28;20209;-74
2022/09/30 03:06:29;;;;;;;17.85;13.82;;;6.90;99.90;;;;;;5057926;28;20190;-73
2022/09/30 03:08:56;;;;;;;15.63;14.02;;;6.90;99.90;;;;;;5058654;28;20201;-74
2022/09/30 03:11:26;;;;;;;13.63;12.25;;;6.70;99.90;;;;;;5058754;28;20196;-74
2022/09/30 03:14:17;;;;;;;16.38;12.35;;;6.60;99.90;;;;;;5057459;28;20310;-74
2022/09/30 03:17:11;;;;;;;13.85;11.38;;;6.70;99.90;;;;;;5057399;28;20184;-74
2022/09/30 03:19:57;;;;;;;13.40;10.95;;;6.70;99.90;;;;;;5058599;28;20227;-73
2022/09/30 03:22:40;;;;;;;14.18;11.95;;;6.60;99.90;;;;;;5058712;28;20226;-74
2022/09/30 03:25:18;;;;;;;14.85;11.18;;;6.60;99.90;;;;;;5055883;28;20558;-74
2022/09/30 03:27:54;;;;;;;12.15;10.13;;;6.60;99.90;;;;;;5055553;28;20197;-74
2022/09/30 03:30:25;;;;;;;13.98;12.57;;;6.50;99.90;;;;;;5056042;28;20280;-74
2022/09/30 03:33:06;;;;;;;13.05;10.32;;;6.50;99.90;;;;;;5055262;28;20278;-74
2022/09/30 03:35:44;;;;;;;13.65;11.43;;;6.50;99.90;;;;;;5055351;28;20237;-73
2022/09/30 03:38:15;;;;;;;18.65;12.00;;;6.50;99.90;;;;;;5055502;28;20618;-74
2022/09/30 03:40:49;;;;;;;12.40;11.18;;;6.50;99.90;;;;;;5055210;28;20638;-73
2022/09/30 03:43:24;;;;;;;13.38;10.77;;;6.50;99.90;;;;;;5055209;28;20274;-74
2022/09/30 03:45:57;;;;;;;12.60;10.88;;;6.50;99.90;;;;;;5055245;28;20270;-74
2022/09/30 03:48:27;;;;;;;12.13;10.93;;;6.50;99.90;;;;;;5055014;28;20226;-74
2022/09/30 03:50:56;;;;;;;15.13;11.43;;;6.60;99.90;;;;;;5054889;28;20222;-74
2022/09/30 03:53:25;;;;;;;12.38;11.10;;;6.60;99.90;;;;;;5054732;28;20219;-73
2022/09/30 03:55:52;;;;;;;13.13;11.70;;;6.40;99.90;;;;;;5054822;28;20294;-74
2022/09/30 03:58:22;;;;;;;12.80;11.50;;;6.40;99.90;;;;;;5054475;28;20713;-74
2022/09/30 04:00:51;;;;;;;14.38;11.13;;;6.40;99.90;;;;;;5054517;28;20764;-73
2022/09/30 04:03:19;;;;;;;13.43;10.93;;;6.30;99.90;;;;;;5054992;28;20200;-73
2022/09/30 04:05:46;;;;;;;12.30;11.05;;;6.30;99.90;;;;;;5054989;28;20289;-73
2022/09/30 04:08:14;;;;;;;13.75;10.98;;;6.40;99.90;;;;;;5054872;28;20204;-74
2022/09/30 04:10:42;;;;;;;11.60;10.18;;;6.40;99.90;;;;;;5054393;28;20309;-74
2022/09/30 04:13:10;;;;;;;11.52;10.27;;;6.40;99.90;;;;;;5054679;28;20227;-74
2022/09/30 04:15:37;;;;;;;16.90;12.15;;;6.40;99.90;;;;;;5054311;28;20742;-74
2022/09/30 04:18:05;;;;;;;14.45;11.50;;;6.60;99.90;;;;;;5054295;28;20717;-74
2022/09/30 04:20:32;;;;;;;17.60;10.77;;;6.40;99.90;;;;;;5054354;28;20314;-75
2022/09/30 04:23:08;;;;;;;16.25;11.10;;;6.30;99.90;;;;;;5054542;28;20238;-75
2022/09/30 04:25:36;;;;;;;15.82;11.55;;;6.40;99.90;;;;;;5054464;28;20283;-74
2022/09/30 04:28:03;;;;;;;13.35;11.15;;;6.40;99.90;;;;;;5054598;28;20207;-74
2022/09/30 04:30:29;;;;;;;11.98;10.40;;;6.40;99.90;;;;;;5053895;28;20235;-73
2022/09/30 04:32:56;;;;;;;13.13;11.80;;;6.40;99.90;;;;;;5053736;28;20705;-73
2022/09/30 04:35:23;;;;;;;11.50;10.30;;;6.50;99.90;;;;;;5054357;28;20206;-74
2022/09/30 04:37:50;;;;;;;14.50;10.40;;;6.40;99.90;;;;;;5054113;28;20237;-73
2022/09/30 04:40:16;;;;;;;13.40;10.98;;;6.40;99.90;;;;;;5054132;28;20223;-73
2022/09/30 04:42:46;;;;;;;11.85;10.32;;;6.30;99.90;;;;;;5054044;28;20207;-73
2022/09/30 04:45:13;;;;;;;12.95;10.70;;;6.40;99.90;;;;;;5053225;28;20203;-73
2022/09/30 04:47:44;;;;;;;11.77;10.55;;;6.40;99.90;;;;;;5053986;28;20211;-73
2022/09/30 04:50:10;;;;;;;12.55;10.10;;;6.40;99.90;;;;;;5053970;28;20349;-73
2022/09/30 04:52:37;;;;;;;11.93;10.55;;;6.40;99.90;;;;;;5053951;28;20210;-73
2022/09/30 04:55:05;;;;;;;15.38;10.45;;;6.40;99.90;;;;;;5053850;28;20253;-73
2022/09/30 04:57:33;;;;;;;13.73;10.38;;;6.40;99.90;;;;;;5053526;28;20299;-74
2022/09/30 05:00:01;;;;;;;14.40;10.82;;;6.50;99.90;;;;;;5053602;28;20224;-73
2022/09/30 05:02:28;;;;;;;11.70;9.48;;;6.60;99.90;;;;;;5053800;28;20282;-73
2022/09/30 05:04:54;;;;;;;11.85;10.15;;;6.50;99.90;;;;;;5053730;28;20725;-73
2022/09/30 05:07:21;;;;;;;13.60;11.05;;;6.40;99.90;;;;;;5053574;28;20200;-73
2022/09/30 05:09:48;;;;;;;13.18;11.77;;;6.30;99.90;;;;;;5053341;28;20273;-73
2022/09/30 05:12:17;;;;;;;14.30;10.85;;;6.30;99.90;;;;;;5053951;28;20202;-73
2022/09/30 05:14:43;;;;;;;12.25;10.93;;;6.40;99.90;;;;;;5056027;28;20215;-73
2022/09/30 05:17:11;;;;;;;13.35;11.07;;;6.50;99.90;;;;;;5056262;28;20230;-73
2022/09/30 05:19:38;;;;;;;12.88;10.15;;;6.50;99.90;;;;;;5055463;28;20223;-73
2022/09/30 05:22:05;;;;;;;15.73;11.40;;;6.40;99.90;;;;;;5053396;28;20207;-73
2022/09/30 05:24:31;;;;;;;12.18;10.55;;;6.40;99.90;;;;;;5053464;28;20580;-73
2022/09/30 05:26:58;;;;;;;14.05;11.50;;;6.50;99.90;;;;;;5053352;28;20645;-73
2022/09/30 05:29:24;;;;;;;14.48;10.90;;;6.40;99.90;;;;;;5053184;28;20598;-73
2022/09/30 05:31:51;;;;;;;13.52;9.70;;;6.40;99.90;;;;;;5053394;28;20207;-73
2022/09/30 05:34:20;;;;;;;11.43;9.60;;;6.50;99.90;;;;;;5053340;28;20219;-74
2022/09/30 05:36:46;;;;;;;13.43;9.80;;;6.40;99.90;;;;;;5053341;28;20624;-75
2022/09/30 05:39:13;;;;;;;12.82;10.55;;;6.50;99.90;;;;;;5053214;28;20231;-73
2022/09/30 05:41:40;;;;;;;15.55;11.75;;;6.40;99.90;;;;;;5052975;28;20613;-74
2022/09/30 05:44:08;;;;;;;12.95;10.50;;;6.50;99.90;;;;;;5052805;28;20610;-74
2022/09/30 05:46:35;;;;;;;19.30;11.27;;;6.60;99.90;;;;;;5053649;28;20203;-75
2022/09/30 05:49:01;;;;;;;15.63;10.98;;;6.60;99.90;;;;;;5052756;28;20619;-74
2022/09/30 05:51:30;;;;;;;19.17;11.35;;;6.60;99.90;;;;;;5052914;28;20206;-74
2022/09/30 05:53:56;;;;;;;12.70;10.15;;;6.60;99.90;;;;;;5053669;28;20310;-74
2022/09/30 05:56:23;;;;;;;11.93;10.20;;;6.70;99.90;;;;;;5057080;28;20204;-75
2022/09/30 05:58:50;;;;;;;15.20;10.45;;;;;;;;;;5059455;28;20610;-74
2022/09/30 06:01:17;;;;;;;14.38;11.82;;;6.60;99.90;;;;;;5059541;28;20207;-75
2022/09/30 06:03:44;;;;;;;15.35;12.50;;;6.80;99.90;;;;;;5059621;28;20245;-74
2022/09/30 06:06:11;;;;;;;18.10;13.50;;;6.80;99.90;;;;;;5059353;28;20207;-74
2022/09/30 06:08:40;;;;;;;15.50;10.82;;;6.80;99.90;;;;;;5059778;28;20215;-74
2022/09/30 06:11:13;;;;;;;14.10;11.90;;;6.90;99.90;;;;;;5059604;28;20235;-74
2022/09/30 06:13:40;;;;;;;25.98;12.38;;;6.90;99.90;;;;;;5059720;28;20314;-73
2022/09/30 06:16:08;;;;;;;13.75;11.70;;;6.90;99.90;;;;;;5059769;28;20270;-74
2022/09/30 06:18:35;;;;;;;19.08;13.25;;;7.00;99.90;;;;;;5060061;28;20205;-74
2022/09/30 06:21:04;;;;;;;23.55;13.75;;;7.20;99.90;;;;;;5059514;28;20223;-75
2022/09/30 06:23:33;;;;;;;16.33;12.10;;;7.30;99.90;;;;;;5059334;28;20207;-75
2022/09/30 06:26:03;;;;;;;14.15;11.45;;;7.40;99.90;;;;;;5059152;28;20242;-76
2022/09/30 06:28:32;;;;;;;20.10;12.63;;;7.40;99.90;;;;;;5059149;28;20230;-76
2022/09/30 06:30:59;;;;;;;17.83;12.27;;;7.40;99.90;;;;;;5059035;28;20228;-74
2022/09/30 06:33:26;;;;;;;17.58;13.73;;;;;;;;;;5059571;28;20278;-77
2022/09/30 06:35:53;;;;;;;17.27;13.55;;;7.30;99.90;;;;;;5059003;28;20670;-75
2022/09/30 06:38:21;;;;;;;17.20;13.80;;;7.30;99.90;;;;;;5059385;28;20204;-74
2022/09/30 06:40:49;;;;;;;21.45;14.68;;;7.30;99.90;;;;;;5059333;28;20225;-73
2022/09/30 06:43:17;;;;;;;16.05;13.27;;;7.40;99.90;;;;;;5059393;28;20214;-74
2022/09/30 06:45:45;;;;;;;18.90;13.15;;;7.50;99.90;;;;;;5059727;28;20251;-73
2022/09/30 06:48:12;;;;;;;17.77;13.02;;;7.50;99.90;;;;;;5059287;28;20227;-73
2022/09/30 06:50:39;;;;;;;20.23;13.50;;;7.60;99.90;;;;;;5059088;28;20241;-74
2022/09/30 06:53:07;;;;;;;17.02;12.98;;;7.60;99.90;;;;;;5058995;28;20214;-74
2022/09/30 06:55:37;;;;;;;15.88;12.60;;;7.60;99.90;;;;;;5058937;28;20237;-73
2022/09/30 06:58:07;;;;;;;18.17;13.15;;;7.70;99.90;;;;;;5059192;28;20188;-73
2022/09/30 07:00:35;;;;;;;19.00;13.50;;;7.80;99.90;;;;;;5058881;28;20231;-74
2022/09/30 07:03:02;;;;;;;20.13;13.48;;;8.00;99.90;;;;;;5059235;28;20628;-74
2022/09/30 07:05:28;;;;;;;21.83;12.73;;;7.90;99.90;;;;;;5059788;28;20210;-74
2022/09/30 07:07:56;;;;;;;19.03;13.23;;;8.00;99.90;;;;;;5055755;28;20444;-73
2022/09/30 07:10:22;;;;;;;14.00;12.50;;;8.10;99.90;;;;;;5054007;28;20562;-73
2022/09/30 07:12:50;;;;;;;13.68;12.23;;;8.20;99.90;;;;;;5055678;28;20468;-73
2022/09/30 07:15:18;;;;;;;17.48;12.73;;;8.20;99.90;;;;;;5055381;28;20222;-73
2022/09/30 07:17:50;;;;;;;18.30;13.90;;;8.30;99.90;;;;;;5055768;28;20217;-74
2022/09/30 07:20:17;;;;;;;19.45;14.18;;;8.40;99.90;;;;;;5055540;28;20820;-73
2022/09/30 07:22:45;;;;;;;14.77;12.77;;;8.50;99.90;;;;;;5055201;28;20333;-73
2022/09/30 07:25:13;;;;;;;19.23;13.23;;;8.50;99.90;;;;;;5055409;28;20431;-73
2022/09/30 07:27:39;;;;;;;18.38;14.80;;;8.70;99.90;;;;;;5055389;28;20454;-74
2022/09/30 07:30:07;;;;;;;21.27;15.33;;;8.80;99.90;;;;;;5055548;28;20223;-73
2022/09/30 07:32:33;;;;;;;15.30;13.63;;;8.90;99.90;;;;;;5055484;28;20448;-74
2022/09/30 07:35:02;;;;;;;16.57;14.17;;;8.90;99.90;;;;;;5055445;28;20460;-74
2022/09/30 07:37:34;;;;;;;19.77;14.90;;;9.00;99.90;;;;;;5055394;28;20888;-73
2022/09/30 07:40:03;;;;;;;19.63;14.77;;;9.10;99.90;;;;;;5055483;28;20444;-73
2022/09/30 07:42:30;;;;;;;17.07;13.27;;;9.20;99.90;;;;;;5055161;28;20430;-74
2022/09/30 07:44:57;;;;;;;17.97;13.70;;;9.30;99.90;;;;;;5056247;28;20445;-73
2022/09/30 07:47:24;;;;;;;15.13;13.23;;;9.30;99.90;;;;;;5054667;28;20436;-74
2022/09/30 07:49:51;;;;;;;19.23;13.93;;;9.30;99.90;;;;;;5055025;28;20472;-75
2022/09/30 07:52:19;;;;;;;17.60;13.37;;;9.40;99.90;;;;;;5054713;28;20939;-74
2022/09/30 07:54:46;;;;;;;13.57;12.13;;;9.40;99.90;;;;;;5055140;28;20535;-74
2022/09/30 07:57:12;;;;;;;21.37;14.50;;;9.50;99.90;;;;;;5054958;28;20453;-74
2022/09/30 07:59:41;;;;;;;13.63;11.80;;;9.60;99.90;;;;;;5054745;28;20466;-72
2022/09/30 08:02:13;;;;;;;17.00;13.10;;;9.70;99.90;;;;;;5054755;28;20452;-73
2022/09/30 08:04:40;;;;;;;14.17;12.00;;;9.80;99.90;;;;;;5054680;28;20927;-74
2022/09/30 08:07:06;;;;;;;14.00;12.30;;;9.90;99.90;;;;;;5054786;28;20420;-74
2022/09/30 08:09:34;;;;;;;17.43;12.37;;;10.00;99.90;;;;;;5054356;28;20524;-73
2022/09/30 08:12:03;;;;;;;14.43;12.93;;;10.00;99.90;;;;;;5054498;28;20885;-74
2022/09/30 08:14:29;;;;;;;18.43;12.87;;;10.10;99.90;;;;;;5054464;28;20594;-73
2022/09/30 08:16:59;;;;;;;15.97;12.93;;;10.20;99.90;;;;;;5054552;28;20631;-73
2022/09/30 08:19:27;;;;;;;18.30;13.97;;;10.30;99.90;;;;;;5055955;28;20451;-73
2022/09/30 08:21:55;;;;;;;20.83;13.07;;;10.40;99.90;;;;;;5054481;28;20504;-74
2022/09/30 08:24:24;;;;;;;18.33;15.87;;;10.50;99.90;;;;;;5054315;28;20784;-74
2022/09/30 08:26:52;;;;;;;25.07;14.77;;;10.60;99.90;;;;;;5054310;28;20416;-75
2022/09/30 08:29:19;;;;;;;18.13;14.03;;;10.70;99.90;;;;;;5054909;28;20444;-73
2022/09/30 08:31:46;;;;;;;14.83;13.20;;;10.80;99.90;;;;;;5054260;28;20445;-74
2022/09/30 08:34:12;;;;;;;16.23;13.53;;;10.80;99.90;;;;;;5054068;28;20427;-74
2022/09/30 08:36:39;;;;;;;17.77;14.30;;;10.90;99.90;;;;;;5054391;28;20420;-74
2022/09/30 08:39:06;;;;;;;14.50;12.90;;;11.40;99.90;;;;;;5054143;28;20445;-73
2022/09/30 08:41:44;;;;;;;15.43;12.90;;;11.00;99.90;;;;;;5054123;28;20424;-73
2022/09/30 08:44:29;;;;;;;14.50;12.07;;;11.20;99.90;;;;;;5053993;28;20437;-74
2022/09/30 08:47:03;;;;;;;15.47;12.73;;;11.20;99.90;;;;;;5054120;28;20466;-74
2022/09/30 08:49:45;;;;;;;16.97;14.53;;;11.30;99.90;;;;;;5053960;28;20440;-73
2022/09/30 08:52:16;;;;;;;15.03;13.40;;;11.30;99.90;;;;;;5054095;28;20404;-73
2022/09/30 08:54:48;;;;;;;14.10;12.67;;;11.40;99.90;;;;;;5053656;28;20983;-74
2022/09/30 08:57:19;;;;;;;14.97;13.37;;;11.50;99.90;;;;;;5054252;28;20433;-75
2022/09/30 08:59:52;;;;;;;15.70;13.57;;;11.60;99.90;;;;;;5054148;28;20440;-73
2022/09/30 09:02:22;;;;;;;21.97;13.70;;;11.70;99.90;;;;;;5054082;28;20397;-74
2022/09/30 09:04:51;;;;;;;14.77;12.93;;;11.70;99.90;;;;;;5054339;28;20422;-75
2022/09/30 09:07:32;;;;;;;20.90;12.20;;;11.80;99.90;;;;;;5054421;28;20511;-74
2022/09/30 09:10:12;;;;;;;14.67;12.17;;;12.00;99.90;;;;;;5053282;28;20876;-74
2022/09/30 09:12:52;;;;;;;16.83;12.77;;;12.00;99.90;;;;;;5053496;28;20426;-74
2022/09/30 09:15:39;;;;;;;14.00;12.67;;;12.10;99.90;;;;;;5053272;28;20470;-74
2022/09/30 09:18:25;;;;;;;14.77;12.47;;;12.20;99.90;;;;;;5053269;28;20472;-75
2022/09/30 09:20:55;;;;;;;19.10;14.57;;;12.20;99.90;;;;;;5053237;28;20499;-75
2022/09/30 09:23:22;;;;;;;16.17;11.80;;;12.30;99.90;;;;;;5053096;28;20507;-75
2022/09/30 09:25:51;;;;;;;15.50;12.90;;;12.30;99.90;;;;;;5053147;28;20469;-74
2022/09/30 09:28:29;;;;;;;13.70;12.20;;;12.50;99.90;;;;;;5053252;28;20421;-75
2022/09/30 09:30:59;;;;;;;12.40;11.10;;;12.60;99.90;;;;;;5053055;28;20501;-74
2022/09/30 09:33:29;;;;;;;14.93;13.20;;;12.70;99.90;;;;;;5052659;28;21019;-74
2022/09/30 09:36:06;;;;;;;13.60;11.67;;;12.70;99.90;;;;;;5052912;28;20521;-74
2022/09/30 09:38:40;;;;;;;12.80;11.13;;;12.60;99.90;;;;;;5052962;28;20401;-74
2022/09/30 09:41:17;;;;;;;15.63;11.03;;;12.80;99.90;;;;;;5053559;28;20472;-73
2022/09/30 09:43:57;;;;;;;12.60;10.27;;;12.90;99.90;;;;;;5053451;28;20438;-73
2022/09/30 09:46:29;;;;;;;13.87;10.43;;;13.00;99.90;;;;;;5053399;28;20532;-73
2022/09/30 09:49:30;;;;;;;15.63;10.80;;;13.00;99.90;;;;;;5053904;28;20438;-73
2022/09/30 09:52:20;;;;;;;15.03;11.83;;;13.10;99.90;;;;;;4972404;28;20445;-73
2022/09/30 09:54:51;;;;;;;12.23;10.90;;;13.10;99.90;;;;;;4972244;28;20503;-73
2022/09/30 09:57:23;;;;;;;11.60;10.40;;;13.20;99.90;;;;;;5023685;28;20420;-73
2022/09/30 09:59:58;;;;;;;12.20;10.90;;;13.30;99.90;;;;;;5053887;28;20470;-73
2022/09/30 10:02:28;;;;;;;12.03;9.57;;;13.40;99.90;;;;;;5053185;28;20445;-74
2022/09/30 10:05:00;;;;;;;14.60;12.33;;;13.40;99.90;;;;;;5052853;28;20972;-74
2022/09/30 10:07:28;;;;;;;15.63;12.13;;;13.40;99.90;;;;;;5053118;28;20408;-74
2022/09/30 10:10:16;;;;;;;13.43;12.07;;;13.50;99.90;;;;;;5052888;28;21070;-74
2022/09/30 10:12:44;;;;;;;14.23;11.90;;;13.60;99.90;;;;;;5053200;28;20486;-73
2022/09/30 10:15:21;;;;;;;12.30;11.00;;;13.60;99.90;;;;;;5052726;28;20485;-74
2022/09/30 10:17:54;;;;;;;13.83;10.63;;;13.60;99.90;;;;;;5052852;28;20832;-74
2022/09/30 10:20:29;;;;;;;11.97;10.33;;;13.70;99.90;;;;;;5052803;28;20444;-74
2022/09/30 10:23:10;;;;;;;11.10;10.00;;;13.70;99.90;;;;;;5052424;28;20908;-74
2022/09/30 10:25:37;;;;;;;11.83;10.63;;;13.70;99.90;;;;;;5052234;28;20392;-74
2022/09/30 10:28:21;;;;;;;11.80;10.60;;;13.80;99.90;;;;;;5052086;28;20953;-74
2022/09/30 10:30:53;;;;;;;14.47;9.20;;;13.80;99.90;;;;;;5052835;28;20444;-74
2022/09/30 10:33:27;;;;;;;10.63;9.63;;;13.90;1.00;;;;;;5052436;28;20474;-74
2022/09/30 10:35:57;;;;;;;14.73;9.73;;;14.00;1.00;;;;;;5053115;28;20494;-74
2022/09/30 10:38:28;;;;;;;12.13;10.90;;;14.10;99.90;;;;;;5053959;28;20441;-73
2022/09/30 10:40:55;;;;;;;14.00;10.20;;;14.20;1.00;;;;;;5054152;28;20448;-74
2022/09/30 10:43:26;;;;;;;11.20;9.73;;;14.20;99.90;;;;;;5055022;28;20457;-74
2022/09/30 10:45:53;;;;;;;12.07;9.07;;;14.30;90.90;;;;;;5056172;28;20422;-74
2022/09/30 10:48:25;;;;;;;13.43;10.90;;;14.40;1.00;;;;;;5055538;28;20956;-74
2022/09/30 10:50:53;;;;;;;19.43;9.97;;;14.40;65.60;;;;;;5055706;28;20500;-74
2022/09/30 10:53:24;;;;;;;18.37;12.07;;;14.50;99.90;;;;;;5055731;28;20940;-74
2022/09/30 10:55:53;;;;;;;15.77;10.87;;;14.50;1.00;;;;;;5055647;28;20447;-74
2022/09/30 10:58:30;;;;;;;9.13;8.27;;;14.70;99.90;;;;;;5056539;28;20595;-74
2022/09/30 11:01:04;;;;;;;18.47;11.50;;;14.60;1.00;;;;;;5057440;28;20473;-74
2022/09/30 11:03:38;;;;;;;9.43;8.13;;;14.60;1.00;;;;;;5057077;28;20434;-73
2022/09/30 11:06:07;;;;;;;10.53;9.43;;;14.60;1.00;;;;;;5056602;28;20880;-74
2022/09/30 11:08:40;;;;;;;11.77;10.30;;;14.70;63.10;;;;;;5055728;28;20452;-75
2022/09/30 11:11:13;;;;;;;14.40;10.83;;;14.70;67.90;;;;;;5055317;28;20481;-74
2022/09/30 11:13:44;;;;;;;9.93;8.87;;;14.70;1.00;;;;;;5056032;28;20772;-74
2022/09/30 11:16:21;;;;;;;11.37;8.67;;;14.70;1.00;;;;;;5055043;28;20503;-74
2022/09/30 11:18:54;;;;;;;10.60;7.47;;;14.80;1.00;;;;;;5055320;28;20842;-74
2022/09/30 11:21:24;;;;;;;7.83;6.03;;;14.80;1.00;;;;;;5055285;28;20400;-74
2022/09/30 11:23:56;;;;;;;8.03;7.30;;;14.90;99.90;;;;;;5055421;28;20784;-74
2022/09/30 11:26:34;;;;;;;6.30;5.70;;;15.00;1.00;;;;;;5055030;28;20898;-74
2022/09/30 11:29:15;;;;;;;7.50;6.63;;;15.40;1.00;;;;;;5055725;28;20413;-74
2022/09/30 11:31:51;;;;;;;12.03;6.47;;;15.10;99.90;;;;;;5055802;28;20404;-74
2022/09/30 11:34:33;;;;;;;13.60;8.80;;;15.20;1.00;;;;;;5055489;28;20771;-74
2022/09/30 11:37:05;;;;;;;8.63;5.90;;;15.20;1.00;;;;;;5055248;28;20444;-74
2022/09/30 11:39:49;;;;;;;10.00;6.17;;;15.10;99.90;;;;;;5055237;28;20473;-74
2022/09/30 11:42:22;;;;;;;7.67;6.03;;;15.10;99.90;;;;;;5055430;28;20487;-74
2022/09/30 11:45:00;;;;;;;6.93;5.43;;;15.10;1.00;;;;;;5055120;28;20404;-74
2022/09/30 11:47:40;;;;;;;6.17;5.57;;;14.90;99.90;;;;;;5055465;28;20405;-74
2022/09/30 11:50:33;;;;;;;7.30;6.30;;;15.10;99.90;;;;;;5055809;28;20858;-75
2022/09/30 11:53:15;;;;;;;6.70;6.07;;;15.20;1.00;;;;;;5054786;28;20827;-73
2022/09/30 11:56:02;;;;;;;6.93;6.23;;;15.30;1.00;;;;;;5054920;28;20532;-74
2022/09/30 11:58:34;;;;;;;6.60;6.00;;;15.40;1.00;;;;;;5054736;28;20431;-74
2022/09/30 12:01:13;;;;;;;20.90;7.80;;;15.50;1.00;;;;;;5054362;28;21007;-74
2022/09/30 12:03:45;;;;;;;8.63;6.37;;;15.50;1.00;;;;;;5054659;28;20940;-75
2022/09/30 12:06:20;;;;;;;8.20;6.57;;;15.50;1.00;;;;;;5054681;28;20433;-74
2022/09/30 12:08:56;;;;;;;6.63;6.03;;;15.60;1.00;;;;;;5054446;28;20499;-74
2022/09/30 12:11:33;;;;;;;5.70;5.10;;;15.60;3.00;;;;;;5054376;28;20401;-75
2022/09/30 12:14:06;;;;;;;5.40;4.37;;;15.70;1.00;;;;;;5054493;28;20433;-74
2022/09/30 12:16:35;;;;;;;5.20;4.70;;;15.70;99.90;;;;;;5054476;28;20867;-76
2022/09/30 12:19:11;;;;;;;9.27;7.07;;;15.90;1.00;;;;;;5053885;28;20943;-74
2022/09/30 12:21:45;;;;;;;8.97;7.30;;;15.80;99.90;;;;;;5055249;28;20434;-74
2022/09/30 12:24:20;;;;;;;6.43;4.80;;;15.80;1.00;;;;;;5055831;28;20902;-74
2022/09/30 12:26:47;;;;;;;5.73;4.10;;;15.80;1.00;;;;;;5055401;28;20479;-74
2022/09/30 12:32:18;;;;;;;4.20;3.50;;;15.80;99.90;;;;;;5010826;28;20733;-74
2022/09/30 12:35:00;;;;;;;4.07;3.73;;;15.80;25.50;;;;;;5054254;28;20803;-74
2022/09/30 12:37:41;;;;;;;3.43;3.13;;;15.80;99.90;;;;;;5054023;28;20436;-75
2022/09/30 12:40:25;;;;;;;4.83;4.47;;;15.80;99.90;;;;;;5054063;28;20527;-74
2022/09/30 12:43:15;;;;;;;3.83;3.50;;;15.80;31.90;;;;;;5053931;28;20397;-75
2022/09/30 12:46:14;;;;;;;4.20;3.80;;;15.90;99.90;;;;;;5054668;28;20793;-75
2022/09/30 12:48:44;;;;;;;4.77;4.37;;;15.80;1.00;;;;;;5053867;28;20487;-74
2022/09/30 12:51:25;;;;;;;5.23;4.20;;;15.90;99.90;;;;;;5053816;28;20951;-74
2022/09/30 12:53:58;;;;;;;7.63;4.53;;;16.00;99.90;;;;;;5054513;28;20433;-75
2022/09/30 12:56:29;;;;;;;5.70;4.27;;;15.90;99.90;;;;;;5053676;28;20477;-75
2022/09/30 12:58:59;;;;;;;5.97;5.37;;;15.60;99.90;;;;;;5053729;28;20409;-74
2022/09/30 13:01:28;;;;;;;5.43;4.93;;;15.60;99.90;;;;;;5054507;28;20544;-74
2022/09/30 13:04:16;;;;;;;8.83;5.60;;;15.50;99.90;;;;;;5053416;28;20470;-75